Ayton, Canada
Current Conditions -  °F | °C
As of 9:00 PM on Saturday 25 Oct 2014 (Local Time) from CYVV Reporting Station
Broken Clouds Broken Clouds  
Wind Chill: 50°   Ceiling: 7000
Heat Index: 50°   Visibility: 15mi
Dew Point: 39°   Wind: 9mph
Humidity: 66%   Direction: 310°NW
Pressure: 29.66"   Gusts: 18mph
Location:  44.05°N, 80.93°W
Report Text: CYVV 260100Z 31008G16KT 15SM BKN070 10/04 A2966 RMK AC7 SLP048
Loading
Personal Weather Stations






























Interactive Weather Map
Tropical Storm Tracking
New forecast layout! Learn more

10-Day Weather Forecast

Advertisements
Track Severe Weather on mobile